Boulder City Muni Information

FAA: BVU - ICAO: KBVU

Boulder City Muni (Airport) Location

State Nevada
County Clark
City Boulder City
Boulder City Muni (Airport) is 1 mile southwest of Boulder City, NV.
Latitude 35-56-50.3090N
Longitude 114-51-39.9030W
Elevation 2,203ft

Boulder City Muni METARs

METAR KBVU 060915Z AUTO 00000KT 10SM CLR 11/M06 A3010 RMK AO2
Altimeter 30.10"
Temperature 11.0°C (51.8°F)
Wind 0° at 0KT
Clouds Skies are clear.
Visibility 10.0mi
Time observed: 2021-12-06T09:15:00Z

Boulder City Muni (Airport) Details

Status Operational
Activation August 1990
Ownership Public
Usage Public
Chart LAS VEGAS
ATC on-site No
Beacon schedule sunset-sunrise
Beacon color clear green

Boulder City Muni (Airport) Contacts

Owner CITY OF BOULDER CITY
Owner address 401 CALIFORNIA AVENUE, BOULDER CITY, NV 89005
Owner phone (702) 293-9405
Manager CONRAD FREVERT
Manager address 54679 875 RD, WAUSA, NE 68786
Manager phone 402-586-2709

Boulder City Muni Radio Frequencies

Boulder City Muni (Airport) Radio Frequencies

UNICOM 122.7
Common traffic advisory frequency (CTAF) 122.7